sensor_id;sensor_type;location;lat;lon;timestamp;temperature;humidity
16321;DHT22;8269;50.990;4.494;2023-05-01T00:01:47;13.20;99.90
16321;DHT22;8269;50.990;4.494;2023-05-01T00:04:13;13.20;99.90
16321;DHT22;8269;50.990;4.494;2023-05-01T00:06:39;13.20;99.90
16321;DHT22;8269;50.990;4.494;2023-05-01T00:09:04;13.30;99.90
16321;DHT22;8269;50.990;4.494;2023-05-01T00:11:31;13.30;99.90
16321;DHT22;8269;50.990;4.494;2023-05-01T00:13:56;13.20;99.90
16321;DHT22;8269;50.990;4.494;2023-05-01T00:16:22;13.20;99.90
16321;DHT22;8269;50.990;4.494;2023-05-01T00:18:47;13.20;99.90
16321;DHT22;8269;50.990;4.494;2023-05-01T00:21:13;13.20;99.90
16321;DHT22;8269;50.990;4.494;2023-05-01T00:23:38;13.10;99.90
16321;DHT22;8269;50.990;4.494;2023-05-01T00:26:04;13.20;99.90
16321;DHT22;8269;50.990;4.494;2023-05-01T00:28:30;13.20;99.90
16321;DHT22;8269;50.990;4.494;2023-05-01T00:30:56;13.20;99.90
16321;DHT22;8269;50.990;4.494;2023-05-01T00:33:21;13.20;99.90
16321;DHT22;8269;50.990;4.494;2023-05-01T00:35:47;13.20;99.90
16321;DHT22;8269;50.990;4.494;2023-05-01T00:38:12;13.30;99.90
16321;DHT22;8269;50.990;4.494;2023-05-01T00:40:42;13.30;99.90
16321;DHT22;8269;50.990;4.494;2023-05-01T00:43:08;13.30;99.90
16321;DHT22;8269;50.990;4.494;2023-05-01T00:45:34;13.30;99.90
16321;DHT22;8269;50.990;4.494;2023-05-01T00:48:00;13.20;99.90
16321;DHT22;8269;50.990;4.494;2023-05-01T00:50:25;13.20;99.90
16321;DHT22;8269;50.990;4.494;2023-05-01T00:52:51;13.20;99.90
16321;DHT22;8269;50.990;4.494;2023-05-01T00:55:17;13.20;99.90
16321;DHT22;8269;50.990;4.494;2023-05-01T00:57:42;13.20;99.90
16321;DHT22;8269;50.990;4.494;2023-05-01T01:00:08;13.20;99.90
16321;DHT22;8269;50.990;4.494;2023-05-01T01:02:36;13.20;99.90
16321;DHT22;8269;50.990;4.494;2023-05-01T01:05:02;13.10;99.90
16321;DHT22;8269;50.990;4.494;2023-05-01T01:07:33;13.10;99.90
16321;DHT22;8269;50.990;4.494;2023-05-01T01:15:07;13.10;99.90
16321;DHT22;8269;50.990;4.494;2023-05-01T01:17:37;13.00;99.90
16321;DHT22;8269;50.990;4.494;2023-05-01T01:22:35;13.00;99.90
16321;DHT22;8269;50.990;4.494;2023-05-01T01:35:28;13.10;99.90
16321;DHT22;8269;50.990;4.494;2023-05-01T01:40:21;13.00;99.90
16321;DHT22;8269;50.990;4.494;2023-05-01T01:42:50;12.90;99.90
16321;DHT22;8269;50.990;4.494;2023-05-01T01:45:20;12.90;99.90
16321;DHT22;8269;50.990;4.494;2023-05-01T01:47:48;12.80;99.90
16321;DHT22;8269;50.990;4.494;2023-05-01T01:50:14;12.80;99.90
16321;DHT22;8269;50.990;4.494;2023-05-01T01:52:40;12.80;99.90
16321;DHT22;8269;50.990;4.494;2023-05-01T01:55:07;12.90;99.90
16321;DHT22;8269;50.990;4.494;2023-05-01T01:57:34;12.90;99.90
16321;DHT22;8269;50.990;4.494;2023-05-01T02:00:00;12.80;99.90
16321;DHT22;8269;50.990;4.494;2023-05-01T02:02:26;12.80;99.90
16321;DHT22;8269;50.990;4.494;2023-05-01T02:04:53;12.80;99.90
16321;DHT22;8269;50.990;4.494;2023-05-01T02:07:21;12.80;99.90
16321;DHT22;8269;50.990;4.494;2023-05-01T02:09:47;12.80;99.90
16321;DHT22;8269;50.990;4.494;2023-05-01T02:12:13;12.80;99.90
16321;DHT22;8269;50.990;4.494;2023-05-01T02:14:41;12.90;99.90
16321;DHT22;8269;50.990;4.494;2023-05-01T02:17:07;12.90;99.90
16321;DHT22;8269;50.990;4.494;2023-05-01T02:19:33;12.90;99.90
16321;DHT22;8269;50.990;4.494;2023-05-01T02:21:59;12.90;99.90
16321;DHT22;8269;50.990;4.494;2023-05-01T02:24:26;12.90;99.90
16321;DHT22;8269;50.990;4.494;2023-05-01T02:26:53;12.90;99.90
16321;DHT22;8269;50.990;4.494;2023-05-01T02:29:20;12.90;99.90
16321;DHT22;8269;50.990;4.494;2023-05-01T02:31:46;12.90;99.90
16321;DHT22;8269;50.990;4.494;2023-05-01T02:34:11;12.90;99.90
16321;DHT22;8269;50.990;4.494;2023-05-01T02:36:37;12.80;99.90
16321;DHT22;8269;50.990;4.494;2023-05-01T02:39:03;12.80;99.90
16321;DHT22;8269;50.990;4.494;2023-05-01T02:41:28;12.80;99.90
16321;DHT22;8269;50.990;4.494;2023-05-01T02:43:57;12.80;99.90
16321;DHT22;8269;50.990;4.494;2023-05-01T02:46:24;12.80;99.90
16321;DHT22;8269;50.990;4.494;2023-05-01T02:48:52;12.80;99.90
16321;DHT22;8269;50.990;4.494;2023-05-01T02:51:18;12.70;99.90
16321;DHT22;8269;50.990;4.494;2023-05-01T02:53:45;12.70;99.90
16321;DHT22;8269;50.990;4.494;2023-05-01T02:56:10;12.80;99.90
16321;DHT22;8269;50.990;4.494;2023-05-01T02:58:36;12.70;99.90
16321;DHT22;8269;50.990;4.494;2023-05-01T03:01:02;12.70;99.90
16321;DHT22;8269;50.990;4.494;2023-05-01T03:03:28;12.70;99.90
16321;DHT22;8269;50.990;4.494;2023-05-01T03:05:54;12.70;99.90
16321;DHT22;8269;50.990;4.494;2023-05-01T03:08:19;12.70;99.90
16321;DHT22;8269;50.990;4.494;2023-05-01T03:10:45;12.70;99.90
16321;DHT22;8269;50.990;4.494;2023-05-01T03:13:10;12.60;99.90
16321;DHT22;8269;50.990;4.494;2023-05-01T03:15:36;12.60;99.90
16321;DHT22;8269;50.990;4.494;2023-05-01T03:18:02;12.50;99.90
16321;DHT22;8269;50.990;4.494;2023-05-01T03:20:28;12.50;99.90
16321;DHT22;8269;50.990;4.494;2023-05-01T03:22:54;12.50;99.90
16321;DHT22;8269;50.990;4.494;2023-05-01T03:25:20;12.40;99.90
16321;DHT22;8269;50.990;4.494;2023-05-01T03:27:46;12.40;99.90
16321;DHT22;8269;50.990;4.494;2023-05-01T03:30:13;12.40;99.90
16321;DHT22;8269;50.990;4.494;2023-05-01T03:32:39;12.40;99.90
16321;DHT22;8269;50.990;4.494;2023-05-01T03:35:04;12.30;99.90
16321;DHT22;8269;50.990;4.494;2023-05-01T03:37:30;12.40;99.90
16321;DHT22;8269;50.990;4.494;2023-05-01T03:39:56;12.40;99.90
16321;DHT22;8269;50.990;4.494;2023-05-01T03:42:21;12.30;99.90
16321;DHT22;8269;50.990;4.494;2023-05-01T03:44:47;12.40;99.90
16321;DHT22;8269;50.990;4.494;2023-05-01T03:47:13;12.30;99.90
16321;DHT22;8269;50.990;4.494;2023-05-01T03:49:39;12.30;99.90
16321;DHT22;8269;50.990;4.494;2023-05-01T03:52:08;12.30;99.90
16321;DHT22;8269;50.990;4.494;2023-05-01T03:54:34;12.30;99.90
16321;DHT22;8269;50.990;4.494;2023-05-01T03:56:59;12.30;99.90
16321;DHT22;8269;50.990;4.494;2023-05-01T03:59:25;12.30;99.90
16321;DHT22;8269;50.990;4.494;2023-05-01T04:01:51;12.30;99.90
16321;DHT22;8269;50.990;4.494;2023-05-01T04:04:17;12.30;99.90
16321;DHT22;8269;50.990;4.494;2023-05-01T04:06:42;12.30;99.90
16321;DHT22;8269;50.990;4.494;2023-05-01T04:09:08;12.30;99.90
16321;DHT22;8269;50.990;4.494;2023-05-01T04:11:34;12.20;99.90
16321;DHT22;8269;50.990;4.494;2023-05-01T04:13:59;12.30;99.90
16321;DHT22;8269;50.990;4.494;2023-05-01T04:16:25;12.30;99.90
16321;DHT22;8269;50.990;4.494;2023-05-01T04:18:50;12.20;99.90
16321;DHT22;8269;50.990;4.494;2023-05-01T04:21:17;12.20;99.90
16321;DHT22;8269;50.990;4.494;2023-05-01T04:23:43;12.10;99.90
16321;DHT22;8269;50.990;4.494;2023-05-01T04:26:08;12.10;99.90
16321;DHT22;8269;50.990;4.494;2023-05-01T04:28:34;12.00;99.90
16321;DHT22;8269;50.990;4.494;2023-05-01T04:31:00;12.00;99.90
16321;DHT22;8269;50.990;4.494;2023-05-01T04:33:25;12.00;99.90
16321;DHT22;8269;50.990;4.494;2023-05-01T04:35:52;12.00;99.90
16321;DHT22;8269;50.990;4.494;2023-05-01T04:38:18;12.00;99.90
16321;DHT22;8269;50.990;4.494;2023-05-01T04:40:44;12.00;99.90
16321;DHT22;8269;50.990;4.494;2023-05-01T04:43:09;12.00;99.90
16321;DHT22;8269;50.990;4.494;2023-05-01T04:45:36;12.00;99.90
16321;DHT22;8269;50.990;4.494;2023-05-01T04:48:04;12.00;99.90
16321;DHT22;8269;50.990;4.494;2023-05-01T04:50:30;12.00;99.90
16321;DHT22;8269;50.990;4.494;2023-05-01T04:52:56;12.00;99.90
16321;DHT22;8269;50.990;4.494;2023-05-01T04:55:21;12.00;99.90
16321;DHT22;8269;50.990;4.494;2023-05-01T04:57:47;12.00;99.90
16321;DHT22;8269;50.990;4.494;2023-05-01T05:00:13;12.00;99.90
16321;DHT22;8269;50.990;4.494;2023-05-01T05:02:39;12.00;99.90
16321;DHT22;8269;50.990;4.494;2023-05-01T05:05:05;12.00;99.90
16321;DHT22;8269;50.990;4.494;2023-05-01T05:07:30;12.00;99.90
16321;DHT22;8269;50.990;4.494;2023-05-01T05:09:56;12.00;99.90
16321;DHT22;8269;50.990;4.494;2023-05-01T05:12:21;12.00;99.90
16321;DHT22;8269;50.990;4.494;2023-05-01T05:14:47;12.00;99.90
16321;DHT22;8269;50.990;4.494;2023-05-01T05:17:13;12.00;99.90
16321;DHT22;8269;50.990;4.494;2023-05-01T05:19:38;12.00;99.90
16321;DHT22;8269;50.990;4.494;2023-05-01T05:22:04;12.00;99.90
16321;DHT22;8269;50.990;4.494;2023-05-01T05:24:30;12.00;99.90
16321;DHT22;8269;50.990;4.494;2023-05-01T05:26:57;12.00;99.90
16321;DHT22;8269;50.990;4.494;2023-05-01T05:29:22;12.00;99.90
16321;DHT22;8269;50.990;4.494;2023-05-01T05:31:48;12.10;99.90
16321;DHT22;8269;50.990;4.494;2023-05-01T05:34:14;12.10;99.90
16321;DHT22;8269;50.990;4.494;2023-05-01T05:36:42;12.10;99.90
16321;DHT22;8269;50.990;4.494;2023-05-01T05:39:08;12.20;99.90
16321;DHT22;8269;50.990;4.494;2023-05-01T05:41:33;12.20;99.90
16321;DHT22;8269;50.990;4.494;2023-05-01T05:43:59;12.30;99.90
16321;DHT22;8269;50.990;4.494;2023-05-01T05:46:25;12.40;99.90
16321;DHT22;8269;50.990;4.494;2023-05-01T05:48:50;12.40;99.90
16321;DHT22;8269;50.990;4.494;2023-05-01T05:51:16;12.50;99.90
16321;DHT22;8269;50.990;4.494;2023-05-01T05:53:42;12.50;99.90
16321;DHT22;8269;50.990;4.494;2023-05-01T05:56:08;12.50;99.90
16321;DHT22;8269;50.990;4.494;2023-05-01T05:58:33;12.50;99.90
16321;DHT22;8269;50.990;4.494;2023-05-01T06:00:59;12.60;99.90
16321;DHT22;8269;50.990;4.494;2023-05-01T06:03:25;12.70;99.90
16321;DHT22;8269;50.990;4.494;2023-05-01T06:05:51;12.80;99.90
16321;DHT22;8269;50.990;4.494;2023-05-01T06:08:17;12.90;99.90
16321;DHT22;8269;50.990;4.494;2023-05-01T06:10:43;12.80;99.90
16321;DHT22;8269;50.990;4.494;2023-05-01T06:13:09;12.80;99.90
16321;DHT22;8269;50.990;4.494;2023-05-01T06:15:36;12.80;99.90
16321;DHT22;8269;50.990;4.494;2023-05-01T06:18:02;12.90;99.90
16321;DHT22;8269;50.990;4.494;2023-05-01T06:20:28;12.90;99.90
16321;DHT22;8269;50.990;4.494;2023-05-01T06:22:54;13.00;99.90
16321;DHT22;8269;50.990;4.494;2023-05-01T06:25:20;13.20;99.90
16321;DHT22;8269;50.990;4.494;2023-05-01T06:27:45;13.20;99.90
16321;DHT22;8269;50.990;4.494;2023-05-01T06:30:11;13.30;99.90
16321;DHT22;8269;50.990;4.494;2023-05-01T06:32:37;13.40;99.90
16321;DHT22;8269;50.990;4.494;2023-05-01T06:35:03;13.40;99.90
16321;DHT22;8269;50.990;4.494;2023-05-01T06:37:29;13.50;99.90
16321;DHT22;8269;50.990;4.494;2023-05-01T06:39:54;13.60;99.90
16321;DHT22;8269;50.990;4.494;2023-05-01T06:42:20;13.70;99.90
16321;DHT22;8269;50.990;4.494;2023-05-01T06:44:46;13.80;99.90
16321;DHT22;8269;50.990;4.494;2023-05-01T06:47:12;13.80;99.90
16321;DHT22;8269;50.990;4.494;2023-05-01T06:49:38;13.70;99.90
16321;DHT22;8269;50.990;4.494;2023-05-01T06:52:03;13.70;99.90
16321;DHT22;8269;50.990;4.494;2023-05-01T06:54:29;13.70;99.90
16321;DHT22;8269;50.990;4.494;2023-05-01T06:56:55;13.70;99.90
16321;DHT22;8269;50.990;4.494;2023-05-01T06:59:21;13.70;99.90
16321;DHT22;8269;50.990;4.494;2023-05-01T07:01:46;13.80;99.90
16321;DHT22;8269;50.990;4.494;2023-05-01T07:04:12;13.90;99.90
16321;DHT22;8269;50.990;4.494;2023-05-01T07:06:39;14.00;99.90
16321;DHT22;8269;50.990;4.494;2023-05-01T07:09:04;14.20;99.90
16321;DHT22;8269;50.990;4.494;2023-05-01T07:11:31;14.30;99.90
16321;DHT22;8269;50.990;4.494;2023-05-01T07:13:57;14.40;99.90
16321;DHT22;8269;50.990;4.494;2023-05-01T07:16:23;14.50;99.90
16321;DHT22;8269;50.990;4.494;2023-05-01T07:18:49;14.50;99.90
16321;DHT22;8269;50.990;4.494;2023-05-01T07:21:15;14.60;99.90
16321;DHT22;8269;50.990;4.494;2023-05-01T07:23:40;14.70;99.90
16321;DHT22;8269;50.990;4.494;2023-05-01T07:26:06;14.70;99.90
16321;DHT22;8269;50.990;4.494;2023-05-01T07:28:32;14.90;99.90
16321;DHT22;8269;50.990;4.494;2023-05-01T07:30:59;14.90;99.90
16321;DHT22;8269;50.990;4.494;2023-05-01T07:33:26;14.90;99.90
16321;DHT22;8269;50.990;4.494;2023-05-01T07:35:52;15.00;99.90
16321;DHT22;8269;50.990;4.494;2023-05-01T07:38:18;15.10;99.90
16321;DHT22;8269;50.990;4.494;2023-05-01T07:40:43;15.10;99.90
16321;DHT22;8269;50.990;4.494;2023-05-01T07:43:09;15.00;99.90
16321;DHT22;8269;50.990;4.494;2023-05-01T07:45:37;15.10;99.90
16321;DHT22;8269;50.990;4.494;2023-05-01T07:48:04;15.10;99.90
16321;DHT22;8269;50.990;4.494;2023-05-01T07:50:30;15.20;99.90
16321;DHT22;8269;50.990;4.494;2023-05-01T07:52:56;15.30;99.90
16321;DHT22;8269;50.990;4.494;2023-05-01T07:55:22;15.20;99.90
16321;DHT22;8269;50.990;4.494;2023-05-01T07:57:48;15.30;99.90
16321;DHT22;8269;50.990;4.494;2023-05-01T08:00:15;15.30;99.90
16321;DHT22;8269;50.990;4.494;2023-05-01T08:02:41;15.40;99.90
16321;DHT22;8269;50.990;4.494;2023-05-01T08:05:07;15.30;99.90
16321;DHT22;8269;50.990;4.494;2023-05-01T08:07:33;15.20;99.90
16321;DHT22;8269;50.990;4.494;2023-05-01T08:09:59;15.30;99.90
16321;DHT22;8269;50.990;4.494;2023-05-01T08:12:25;15.30;99.90
16321;DHT22;8269;50.990;4.494;2023-05-01T08:14:51;15.40;99.90
16321;DHT22;8269;50.990;4.494;2023-05-01T08:17:17;15.30;99.90
16321;DHT22;8269;50.990;4.494;2023-05-01T08:19:42;15.30;99.90
16321;DHT22;8269;50.990;4.494;2023-05-01T08:22:10;15.30;99.90
16321;DHT22;8269;50.990;4.494;2023-05-01T08:24:36;15.20;99.90
16321;DHT22;8269;50.990;4.494;2023-05-01T08:27:01;15.30;99.90
16321;DHT22;8269;50.990;4.494;2023-05-01T08:29:27;15.40;99.90
16321;DHT22;8269;50.990;4.494;2023-05-01T08:31:55;15.40;99.90
16321;DHT22;8269;50.990;4.494;2023-05-01T08:34:21;15.50;99.90
16321;DHT22;8269;50.990;4.494;2023-05-01T08:36:47;15.50;99.90
16321;DHT22;8269;50.990;4.494;2023-05-01T08:39:13;15.50;99.90
16321;DHT22;8269;50.990;4.494;2023-05-01T08:41:42;15.70;99.90
16321;DHT22;8269;50.990;4.494;2023-05-01T08:44:10;15.70;99.90
16321;DHT22;8269;50.990;4.494;2023-05-01T08:49:32;15.90;99.90
16321;DHT22;8269;50.990;4.494;2023-05-01T08:51:58;16.00;99.90
16321;DHT22;8269;50.990;4.494;2023-05-01T08:54:25;16.00;99.90
16321;DHT22;8269;50.990;4.494;2023-05-01T08:56:51;16.10;99.90
16321;DHT22;8269;50.990;4.494;2023-05-01T08:59:17;16.10;99.90
16321;DHT22;8269;50.990;4.494;2023-05-01T09:01:43;16.30;99.90
16321;DHT22;8269;50.990;4.494;2023-05-01T09:04:11;16.50;99.90
16321;DHT22;8269;50.990;4.494;2023-05-01T09:06:37;16.50;99.90
16321;DHT22;8269;50.990;4.494;2023-05-01T09:09:02;16.60;99.90
16321;DHT22;8269;50.990;4.494;2023-05-01T09:11:28;16.80;99.90
16321;DHT22;8269;50.990;4.494;2023-05-01T09:13:54;16.80;99.90
16321;DHT22;8269;50.990;4.494;2023-05-01T09:16:20;16.80;99.90
16321;DHT22;8269;50.990;4.494;2023-05-01T09:18:46;16.90;99.90
16321;DHT22;8269;50.990;4.494;2023-05-01T09:21:12;17.20;99.90
16321;DHT22;8269;50.990;4.494;2023-05-01T09:23:37;17.40;99.90
16321;DHT22;8269;50.990;4.494;2023-05-01T09:26:08;17.70;99.90
16321;DHT22;8269;50.990;4.494;2023-05-01T09:28:44;17.50;99.90
16321;DHT22;8269;50.990;4.494;2023-05-01T09:31:24;17.60;99.90
16321;DHT22;8269;50.990;4.494;2023-05-01T09:36:24;17.20;99.90
16321;DHT22;8269;50.990;4.494;2023-05-01T09:38:49;17.10;99.90
16321;DHT22;8269;50.990;4.494;2023-05-01T09:41:16;17.10;99.90
16321;DHT22;8269;50.990;4.494;2023-05-01T09:43:54;16.90;99.90
16321;DHT22;8269;50.990;4.494;2023-05-01T09:46:24;16.60;99.90
16321;DHT22;8269;50.990;4.494;2023-05-01T09:48:54;16.30;99.90
16321;DHT22;8269;50.990;4.494;2023-05-01T09:51:27;16.30;99.90
16321;DHT22;8269;50.990;4.494;2023-05-01T09:54:03;16.40;99.90
16321;DHT22;8269;50.990;4.494;2023-05-01T09:56:31;16.40;99.90
16321;DHT22;8269;50.990;4.494;2023-05-01T10:01:43;16.40;99.90
16321;DHT22;8269;50.990;4.494;2023-05-01T10:04:10;16.00;99.90
16321;DHT22;8269;50.990;4.494;2023-05-01T10:06:37;15.90;99.90
16321;DHT22;8269;50.990;4.494;2023-05-01T10:09:05;15.90;99.90
16321;DHT22;8269;50.990;4.494;2023-05-01T10:11:49;15.80;99.90
16321;DHT22;8269;50.990;4.494;2023-05-01T10:14:16;15.60;99.90
16321;DHT22;8269;50.990;4.494;2023-05-01T10:16:42;15.50;99.90
16321;DHT22;8269;50.990;4.494;2023-05-01T10:19:09;15.40;99.90
16321;DHT22;8269;50.990;4.494;2023-05-01T10:21:35;15.50;99.90
16321;DHT22;8269;50.990;4.494;2023-05-01T10:24:02;15.50;99.90
16321;DHT22;8269;50.990;4.494;2023-05-01T10:26:29;15.60;99.90
16321;DHT22;8269;50.990;4.494;2023-05-01T10:28:58;15.80;99.90
16321;DHT22;8269;50.990;4.494;2023-05-01T10:31:43;15.70;99.90
16321;DHT22;8269;50.990;4.494;2023-05-01T10:34:10;15.80;99.90
16321;DHT22;8269;50.990;4.494;2023-05-01T10:36:48;15.90;99.90
16321;DHT22;8269;50.990;4.494;2023-05-01T10:39:31;15.80;99.90
16321;DHT22;8269;50.990;4.494;2023-05-01T10:44:25;16.00;99.90
16321;DHT22;8269;50.990;4.494;2023-05-01T10:46:51;16.10;99.90
16321;DHT22;8269;50.990;4.494;2023-05-01T10:49:17;16.10;99.90
16321;DHT22;8269;50.990;4.494;2023-05-01T10:54:24;16.30;99.90
16321;DHT22;8269;50.990;4.494;2023-05-01T10:56:51;16.50;99.90
16321;DHT22;8269;50.990;4.494;2023-05-01T10:59:20;16.80;99.90
16321;DHT22;8269;50.990;4.494;2023-05-01T11:01:47;17.20;99.90
16321;DHT22;8269;50.990;4.494;2023-05-01T11:07:12;17.70;99.90
16321;DHT22;8269;50.990;4.494;2023-05-01T11:09:39;17.60;99.90
16321;DHT22;8269;50.990;4.494;2023-05-01T11:12:05;17.90;99.90
16321;DHT22;8269;50.990;4.494;2023-05-01T11:17:43;18.10;99.90
16321;DHT22;8269;50.990;4.494;2023-05-01T11:20:02;17.90;99.90
16321;DHT22;8269;50.990;4.494;2023-05-01T11:22:29;17.90;99.90
16321;DHT22;8269;50.990;4.494;2023-05-01T11:24:55;18.00;99.90
16321;DHT22;8269;50.990;4.494;2023-05-01T11:27:20;18.30;99.90
16321;DHT22;8269;50.990;4.494;2023-05-01T11:29:48;18.60;99.90
16321;DHT22;8269;50.990;4.494;2023-05-01T11:32:15;18.70;99.90
16321;DHT22;8269;50.990;4.494;2023-05-01T11:34:42;18.90;99.90
16321;DHT22;8269;50.990;4.494;2023-05-01T11:37:10;19.00;99.90
16321;DHT22;8269;50.990;4.494;2023-05-01T11:39:35;19.30;99.90
16321;DHT22;8269;50.990;4.494;2023-05-01T11:42:05;19.60;99.90
16321;DHT22;8269;50.990;4.494;2023-05-01T11:44:31;19.50;99.90
16321;DHT22;8269;50.990;4.494;2023-05-01T11:46:58;19.20;99.90
16321;DHT22;8269;50.990;4.494;2023-05-01T11:49:26;18.70;99.90
16321;DHT22;8269;50.990;4.494;2023-05-01T11:51:58;18.50;99.90
16321;DHT22;8269;50.990;4.494;2023-05-01T11:54:25;18.60;99.90
16321;DHT22;8269;50.990;4.494;2023-05-01T11:56:57;18.90;99.90
16321;DHT22;8269;50.990;4.494;2023-05-01T11:59:26;18.90;99.90
16321;DHT22;8269;50.990;4.494;2023-05-01T12:01:52;19.00;99.90
16321;DHT22;8269;50.990;4.494;2023-05-01T12:04:25;19.10;99.90
16321;DHT22;8269;50.990;4.494;2023-05-01T12:06:51;18.90;99.90
16321;DHT22;8269;50.990;4.494;2023-05-01T12:09:18;18.60;99.90
16321;DHT22;8269;50.990;4.494;2023-05-01T12:11:45;18.80;99.90
16321;DHT22;8269;50.990;4.494;2023-05-01T12:14:11;18.60;99.90
16321;DHT22;8269;50.990;4.494;2023-05-01T12:16:36;18.80;99.90
16321;DHT22;8269;50.990;4.494;2023-05-01T12:21:31;19.20;99.90
16321;DHT22;8269;50.990;4.494;2023-05-01T12:24:14;19.30;99.90
16321;DHT22;8269;50.990;4.494;2023-05-01T12:26:40;19.40;99.90
16321;DHT22;8269;50.990;4.494;2023-05-01T12:29:06;19.30;99.20
16321;DHT22;8269;50.990;4.494;2023-05-01T12:31:33;19.20;99.50
16321;DHT22;8269;50.990;4.494;2023-05-01T12:34:00;19.10;99.90
16321;DHT22;8269;50.990;4.494;2023-05-01T12:36:30;19.20;98.50
16321;DHT22;8269;50.990;4.494;2023-05-01T12:38:56;19.30;98.00
16321;DHT22;8269;50.990;4.494;2023-05-01T12:44:00;19.20;97.40
16321;DHT22;8269;50.990;4.494;2023-05-01T12:46:26;18.80;96.70
16321;DHT22;8269;50.990;4.494;2023-05-01T12:48:52;18.70;99.00
16321;DHT22;8269;50.990;4.494;2023-05-01T12:51:21;19.00;99.30
16321;DHT22;8269;50.990;4.494;2023-05-01T12:53:47;19.20;97.50
16321;DHT22;8269;50.990;4.494;2023-05-01T12:56:23;19.20;98.00
16321;DHT22;8269;50.990;4.494;2023-05-01T12:58:49;19.40;95.90
16321;DHT22;8269;50.990;4.494;2023-05-01T13:01:22;19.20;95.20
16321;DHT22;8269;50.990;4.494;2023-05-01T13:03:49;18.90;96.40
16321;DHT22;8269;50.990;4.494;2023-05-01T13:06:15;19.00;95.80
16321;DHT22;8269;50.990;4.494;2023-05-01T13:08:43;19.00;94.80
16321;DHT22;8269;50.990;4.494;2023-05-01T13:11:10;18.80;95.50
16321;DHT22;8269;50.990;4.494;2023-05-01T13:13:38;18.60;95.90
16321;DHT22;8269;50.990;4.494;2023-05-01T13:16:08;18.50;96.80
16321;DHT22;8269;50.990;4.494;2023-05-01T13:18:50;18.30;97.10
16321;DHT22;8269;50.990;4.494;2023-05-01T13:21:18;18.20;97.50
16321;DHT22;8269;50.990;4.494;2023-05-01T13:23:54;18.10;97.60
16321;DHT22;8269;50.990;4.494;2023-05-01T13:26:29;18.10;96.60
16321;DHT22;8269;50.990;4.494;2023-05-01T13:28:57;18.10;97.10
16321;DHT22;8269;50.990;4.494;2023-05-01T13:31:24;18.20;96.10
16321;DHT22;8269;50.990;4.494;2023-05-01T13:33:51;18.10;96.30
16321;DHT22;8269;50.990;4.494;2023-05-01T13:36:17;18.20;96.00
16321;DHT22;8269;50.990;4.494;2023-05-01T13:38:46;18.30;96.30
16321;DHT22;8269;50.990;4.494;2023-05-01T13:41:17;18.40;95.10
16321;DHT22;8269;50.990;4.494;2023-05-01T13:43:47;18.30;95.20
16321;DHT22;8269;50.990;4.494;2023-05-01T13:46:13;18.30;95.60
16321;DHT22;8269;50.990;4.494;2023-05-01T13:48:39;18.20;95.60
16321;DHT22;8269;50.990;4.494;2023-05-01T13:51:06;18.10;93.60
16321;DHT22;8269;50.990;4.494;2023-05-01T13:53:33;18.10;93.60
16321;DHT22;8269;50.990;4.494;2023-05-01T13:55:58;18.10;94.10
16321;DHT22;8269;50.990;4.494;2023-05-01T13:58:25;18.30;94.90
16321;DHT22;8269;50.990;4.494;2023-05-01T14:00:52;18.40;94.60
16321;DHT22;8269;50.990;4.494;2023-05-01T14:03:18;18.40;93.50
16321;DHT22;8269;50.990;4.494;2023-05-01T14:05:43;18.40;93.50
16321;DHT22;8269;50.990;4.494;2023-05-01T14:08:09;18.50;92.70
16321;DHT22;8269;50.990;4.494;2023-05-01T14:10:36;18.40;92.40
16321;DHT22;8269;50.990;4.494;2023-05-01T14:13:02;18.40;93.20
16321;DHT22;8269;50.990;4.494;2023-05-01T14:15:30;18.40;92.40
16321;DHT22;8269;50.990;4.494;2023-05-01T14:17:55;18.50;91.60
16321;DHT22;8269;50.990;4.494;2023-05-01T14:20:25;18.50;91.10
16321;DHT22;8269;50.990;4.494;2023-05-01T14:22:51;18.60;91.10
16321;DHT22;8269;50.990;4.494;2023-05-01T14:25:24;18.70;91.40
16321;DHT22;8269;50.990;4.494;2023-05-01T14:27:51;18.60;91.10
16321;DHT22;8269;50.990;4.494;2023-05-01T14:30:30;18.50;91.00
16321;DHT22;8269;50.990;4.494;2023-05-01T14:33:01;18.40;90.40
16321;DHT22;8269;50.990;4.494;2023-05-01T14:35:27;18.30;90.70
16321;DHT22;8269;50.990;4.494;2023-05-01T14:37:53;18.30;90.60
16321;DHT22;8269;50.990;4.494;2023-05-01T14:40:23;18.40;90.40
16321;DHT22;8269;50.990;4.494;2023-05-01T14:42:50;18.50;90.80
16321;DHT22;8269;50.990;4.494;2023-05-01T14:45:16;18.80;88.50
16321;DHT22;8269;50.990;4.494;2023-05-01T14:47:45;18.80;87.40
16321;DHT22;8269;50.990;4.494;2023-05-01T14:50:12;18.80;86.00
16321;DHT22;8269;50.990;4.494;2023-05-01T14:52:40;18.80;84.80
16321;DHT22;8269;50.990;4.494;2023-05-01T14:55:06;18.80;83.30
16321;DHT22;8269;50.990;4.494;2023-05-01T14:57:32;18.80;84.00
16321;DHT22;8269;50.990;4.494;2023-05-01T14:59:58;18.80;85.70
16321;DHT22;8269;50.990;4.494;2023-05-01T15:02:23;18.80;85.50
16321;DHT22;8269;50.990;4.494;2023-05-01T15:04:49;18.70;85.90
16321;DHT22;8269;50.990;4.494;2023-05-01T15:07:14;18.60;85.90
16321;DHT22;8269;50.990;4.494;2023-05-01T15:09:40;18.50;85.00
16321;DHT22;8269;50.990;4.494;2023-05-01T15:12:07;18.40;85.80
16321;DHT22;8269;50.990;4.494;2023-05-01T15:14:33;18.30;85.00
16321;DHT22;8269;50.990;4.494;2023-05-01T15:16:59;18.20;85.60
16321;DHT22;8269;50.990;4.494;2023-05-01T15:19:25;18.10;86.80
16321;DHT22;8269;50.990;4.494;2023-05-01T15:21:50;17.90;88.70
16321;DHT22;8269;50.990;4.494;2023-05-01T15:24:16;17.80;90.10
16321;DHT22;8269;50.990;4.494;2023-05-01T15:26:44;17.70;90.20
16321;DHT22;8269;50.990;4.494;2023-05-01T15:29:10;17.80;90.30
16321;DHT22;8269;50.990;4.494;2023-05-01T15:31:35;17.80;90.50
16321;DHT22;8269;50.990;4.494;2023-05-01T15:34:01;17.80;90.00
16321;DHT22;8269;50.990;4.494;2023-05-01T15:36:27;17.80;91.20
16321;DHT22;8269;50.990;4.494;2023-05-01T15:38:53;17.70;91.70
16321;DHT22;8269;50.990;4.494;2023-05-01T15:41:18;17.60;91.80
16321;DHT22;8269;50.990;4.494;2023-05-01T15:43:44;17.70;90.80
16321;DHT22;8269;50.990;4.494;2023-05-01T15:46:15;17.60;91.00
16321;DHT22;8269;50.990;4.494;2023-05-01T15:48:42;17.60;90.70
16321;DHT22;8269;50.990;4.494;2023-05-01T15:51:07;17.60;88.60
16321;DHT22;8269;50.990;4.494;2023-05-01T15:53:33;17.50;88.10
16321;DHT22;8269;50.990;4.494;2023-05-01T15:55:59;17.40;86.20
16321;DHT22;8269;50.990;4.494;2023-05-01T15:58:24;17.50;86.90
16321;DHT22;8269;50.990;4.494;2023-05-01T16:00:50;17.50;89.50
16321;DHT22;8269;50.990;4.494;2023-05-01T16:03:16;17.40;90.30
16321;DHT22;8269;50.990;4.494;2023-05-01T16:05:43;17.40;90.50
16321;DHT22;8269;50.990;4.494;2023-05-01T16:08:09;17.40;90.90
16321;DHT22;8269;50.990;4.494;2023-05-01T16:10:35;17.40;91.30
16321;DHT22;8269;50.990;4.494;2023-05-01T16:13:02;17.40;91.60
16321;DHT22;8269;50.990;4.494;2023-05-01T16:15:29;17.30;92.20
16321;DHT22;8269;50.990;4.494;2023-05-01T16:17:54;17.30;91.60
16321;DHT22;8269;50.990;4.494;2023-05-01T16:20:21;17.10;90.90
16321;DHT22;8269;50.990;4.494;2023-05-01T16:22:47;17.00;90.30
16321;DHT22;8269;50.990;4.494;2023-05-01T16:25:13;17.00;89.20
16321;DHT22;8269;50.990;4.494;2023-05-01T16:27:42;16.90;88.70